Unionport, Ohio
Current Conditions -  °F | °C
As of 11:53 AM on Friday 31 Oct 2014 (Local Time) from KHLG Reporting Station
Light Rain Light Rain  
Wind Chill: 39°   Ceiling: 2600
Heat Index: 43°   Visibility: 8mi
Dew Point: 38°   Wind: 6mph
Humidity: 82%   Direction: 260°W
Pressure: 29.93"   Gusts: NA
Location:  40.36°N, 80.85°W
Report Text: KHLG 311553Z 26005KT 8SM -RA SCT018 OVC026 06/03 A2993 RMK AO2 RAB08 SLP144 P0001 T00610033
Loading
Personal Weather Stations






























Interactive Weather Map
Tropical Storm Tracking
New forecast layout! Learn more

10-Day Weather Forecast

Advertisements
Track Severe Weather on mobile